Time;durP1;ratioP1;P1;durP2;ratioP2;P2;SDS_P1;SDS_P2;PMS_P1;PMS_P2;Temp;Humidity;BMP_temperature;BMP_pressure;BME280_temperature;BME280_humidity;BME280_pressure;Samples;Min_cycle;Max_cycle;Signal;HPM_P1;HPM_P2
2022/04/07 00:00:09;;;;;;;14.63;6.88;;;;;;;17.51;49.52;99126.66;5050070;28;20151;-57
2022/04/07 00:02:35;;;;;;;16.58;7.47;;;;;;;17.50;49.22;99126.84;5047312;28;20492;-58
2022/04/07 00:05:02;;;;;;;14.80;7.05;;;;;;;17.50;49.58;99127.69;5047386;28;20501;-56
2022/04/07 00:07:29;;;;;;;14.48;7.13;;;;;;;17.47;49.73;99136.09;5047127;28;20067;-56
2022/04/07 00:09:55;;;;;;;10.88;6.53;;;;;;;17.46;49.67;99130.94;5044585;28;20041;-57
2022/04/07 00:12:22;;;;;;;14.38;8.15;;;;;;;17.44;50.06;99109.69;5048831;28;20152;-55
2022/04/07 00:14:49;;;;;;;12.73;6.60;;;;;;;17.42;49.83;99125.13;5048848;28;20529;-57
2022/04/07 00:17:15;;;;;;;12.85;7.45;;;;;;;17.40;49.73;99115.63;5047458;28;20532;-56
2022/04/07 00:19:42;;;;;;;13.60;7.13;;;;;;;17.39;50.03;99113.97;5047727;28;20049;-56
2022/04/07 00:22:08;;;;;;;13.45;6.78;;;;;;;17.37;50.47;99099.97;5047596;28;20119;-56
2022/04/07 00:24:35;;;;;;;13.25;6.93;;;;;;;17.36;50.06;99098.28;5046322;28;20507;-56
2022/04/07 00:27:01;;;;;;;12.75;7.03;;;;;;;17.34;50.44;99100.34;5052206;28;20071;-56
2022/04/07 00:29:28;;;;;;;14.75;6.82;;;;;;;17.33;50.27;99090.66;5050361;28;20436;-55
2022/04/07 00:31:57;;;;;;;14.40;7.60;;;;;;;17.31;50.51;99074.75;5048804;28;20055;-56
2022/04/07 00:34:24;;;;;;;14.27;6.50;;;;;;;17.31;50.15;99073.94;5047729;28;20095;-57
2022/04/07 00:36:51;;;;;;;11.40;6.43;;;;;;;17.30;50.68;99078.47;5055233;28;20144;-57
2022/04/07 00:39:17;;;;;;;14.48;7.00;;;;;;;17.27;50.19;99058.25;5051151;28;20087;-57
2022/04/07 00:41:45;;;;;;;13.70;6.57;;;;;;;17.28;50.54;99062.56;5051484;28;20049;-57
2022/04/07 00:44:13;;;;;;;10.85;6.15;;;;;;;17.26;50.77;99056.59;5048405;28;20048;-57
2022/04/07 00:46:40;;;;;;;12.75;5.40;;;;;;;17.26;50.94;99051.25;5051984;28;20135;-57
2022/04/07 00:49:08;;;;;;;12.73;6.30;;;;;;;17.27;50.54;99046.72;5049886;28;20127;-57
2022/04/07 00:51:42;;;;;;;9.43;4.93;;;;;;;17.25;50.20;99052.25;5053869;28;20065;-57
2022/04/07 00:54:10;;;;;;;11.48;5.57;;;;;;;17.26;50.16;99034.34;5050299;28;20045;-56
2022/04/07 00:56:38;;;;;;;11.05;5.43;;;;;;;17.26;50.30;99029.00;5053219;28;20639;-56
2022/04/07 00:59:05;;;;;;;10.98;4.93;;;;;;;17.25;50.72;99033.53;5046789;28;20044;-56
2022/04/07 01:01:32;;;;;;;11.98;4.88;;;;;;;17.25;50.07;99032.69;5046095;28;20396;-56
2022/04/07 01:03:59;;;;;;;10.98;4.18;;;;;;;17.24;50.21;99022.97;5046981;28;20138;-56
2022/04/07 01:06:26;;;;;;;12.38;4.68;;;;;;;17.22;50.59;99017.84;5044255;28;20044;-58
2022/04/07 01:08:54;;;;;;;11.45;4.68;;;;;;;17.22;50.17;99012.47;5046289;28;20041;-56
2022/04/07 01:11:22;;;;;;;9.00;4.15;;;;;;;17.21;50.24;99004.66;5046670;28;20328;-58
2022/04/07 01:13:50;;;;;;;10.30;4.63;;;;;;;17.21;50.95;99008.16;5045463;28;20440;-57
2022/04/07 01:16:18;;;;;;;9.40;4.32;;;;;;;17.20;50.73;98998.44;5047158;28;20045;-57
2022/04/07 01:18:46;;;;;;;11.93;4.03;;;;;;;17.20;50.36;98995.78;5044526;28;20052;-57
2022/04/07 01:21:14;;;;;;;16.30;4.68;;;;;;;17.19;50.64;98980.72;5046381;28;20076;-56
2022/04/07 01:23:54;;;;;;;12.43;5.13;;;;;;;17.18;51.02;98979.09;5045672;28;20116;-57
2022/04/07 01:26:21;;;;;;;12.93;4.63;;;;;;;17.18;50.35;98973.72;5046027;28;20058;-57
2022/04/07 01:28:49;;;;;;;8.88;3.95;;;;;;;17.20;50.67;98970.84;5047040;28;20051;-57
2022/04/07 01:31:16;;;;;;;10.35;4.00;;;;;;;17.19;50.63;98974.56;5046039;28;20052;-56
2022/04/07 01:33:43;;;;;;;9.10;4.22;;;;;;;17.18;50.50;98967.56;5044436;28;20047;-56
2022/04/07 01:36:12;;;;;;;9.25;3.80;;;;;;;17.17;50.64;98953.34;5046811;28;20480;-55
2022/04/07 01:38:40;;;;;;;7.97;3.65;;;;;;;17.17;50.79;98947.16;5043399;28;20041;-56
2022/04/07 01:41:07;;;;;;;12.05;4.13;;;;;;;17.17;50.88;98942.63;5048193;28;20136;-56
2022/04/07 01:43:35;;;;;;;11.98;4.53;;;;;;;17.12;50.50;98926.31;5043579;28;20051;-56
2022/04/07 01:46:02;;;;;;;8.93;3.83;;;;;;;17.11;51.04;98921.16;5043933;28;20051;-56
2022/04/07 01:48:29;;;;;;;8.88;3.72;;;;;;;17.10;51.62;98904.28;5045550;28;20313;-55
2022/04/07 01:50:57;;;;;;;12.30;3.50;;;;;;;17.10;51.03;98906.13;5044738;28;20049;-58
2022/04/07 01:53:25;;;;;;;10.70;3.65;;;;;;;17.09;50.48;98910.66;5042726;28;20564;-58
2022/04/07 01:55:52;;;;;;;9.27;3.40;;;;;;;17.09;50.53;98897.28;5044319;28;20055;-57
2022/04/07 01:58:19;;;;;;;11.25;3.40;;;;;;;17.09;50.86;98893.78;5044640;28;20052;-57
2022/04/07 02:00:45;;;;;;;9.45;3.63;;;;;;;17.06;50.74;98872.75;5047409;28;20135;-57
2022/04/07 02:03:12;;;;;;;11.57;4.20;;;;;;;17.07;50.86;98879.75;5043804;28;20033;-57
2022/04/07 02:05:39;;;;;;;12.82;3.92;;;;;;;17.05;50.50;98869.25;5043191;28;21880;-57
2022/04/07 02:08:06;;;;;;;8.43;3.20;;;;;;;17.06;50.71;98875.44;5043536;28;20148;-57
2022/04/07 02:10:32;;;;;;;9.90;3.50;;;;;;;17.05;51.09;98858.53;5042711;28;20199;-57
2022/04/07 02:12:59;;;;;;;8.77;3.20;;;;;;;17.03;51.25;98865.91;5044708;28;21563;-57
2022/04/07 02:15:26;;;;;;;8.32;2.60;;;;;;;17.02;51.12;98857.06;5047227;28;20053;-58
2022/04/07 02:17:53;;;;;;;11.43;3.72;;;;;;;17.01;51.03;98851.94;5045877;28;20056;-57
2022/04/07 02:20:20;;;;;;;9.13;2.90;;;;;;;17.00;51.73;98855.59;5043473;28;20041;-57
2022/04/07 02:22:46;;;;;;;10.15;3.20;;;;;;;16.98;51.65;98849.63;5043912;28;20131;-56
2022/04/07 02:25:13;;;;;;;9.88;3.00;;;;;;;16.97;50.95;98853.34;5041451;28;20071;-56
2022/04/07 02:27:42;;;;;;;7.57;3.17;;;;;;;16.95;51.50;98855.38;5045695;28;20332;-57
2022/04/07 02:30:11;;;;;;;7.82;2.70;;;;;;;16.95;51.42;98855.38;5043307;28;20056;-57
2022/04/07 02:32:37;;;;;;;11.82;3.35;;;;;;;16.94;51.20;98838.50;5043586;28;20048;-57
2022/04/07 02:35:04;;;;;;;13.88;3.47;;;;;;;16.94;51.33;98843.03;5045535;28;20128;-57
2022/04/07 02:37:31;;;;;;;7.82;3.05;;;;;;;16.91;51.01;98836.19;5044117;28;20047;-57
2022/04/07 02:39:56;;;;;;;11.00;3.53;;;;;;;16.91;50.94;98835.38;5044226;28;20327;-56
2022/04/07 02:42:23;;;;;;;12.05;2.92;;;;;;;16.91;50.89;98840.72;5046586;28;20566;-57
2022/04/07 02:44:49;;;;;;;7.15;2.67;;;;;;;16.91;51.42;98832.69;5045848;28;20063;-57
2022/04/07 02:47:17;;;;;;;9.52;3.30;;;;;;;16.91;51.52;98836.19;5046069;28;20045;-56
2022/04/07 02:49:44;;;;;;;10.38;2.90;;;;;;;16.92;50.97;98829.00;5044534;28;20156;-56
2022/04/07 02:52:10;;;;;;;10.20;3.55;;;;;;;16.93;51.40;98809.25;5047800;28;20049;-57
2022/04/07 02:54:37;;;;;;;8.13;2.88;;;;;;;16.92;50.78;98808.41;5043347;28;20148;-57
2022/04/07 02:57:04;;;;;;;11.80;2.92;;;;;;;16.92;51.37;98807.59;5048947;28;20153;-57
2022/04/07 02:59:32;;;;;;;9.15;2.78;;;;;;;16.91;50.67;98809.44;5044696;28;20037;-56
2022/04/07 03:01:58;;;;;;;8.55;2.58;;;;;;;16.92;50.79;98787.00;5045407;28;20535;-57
2022/04/07 03:04:25;;;;;;;10.05;3.00;;;;;;;16.91;51.43;98797.91;5045152;28;20041;-57
2022/04/07 03:06:52;;;;;;;11.32;2.58;;;;;;;16.92;50.89;98787.00;5044574;28;20059;-57
2022/04/07 03:09:20;;;;;;;12.85;3.10;;;;;;;16.93;50.77;98777.16;5044431;28;20053;-57
2022/04/07 03:11:46;;;;;;;9.60;3.05;;;;;;;16.91;51.71;98763.94;5046321;28;20049;-58
2022/04/07 03:14:14;;;;;;;9.95;3.00;;;;;;;16.92;51.37;98772.81;5043985;28;20045;-57
2022/04/07 03:16:48;;;;;;;11.02;3.15;;;;;;;16.91;50.88;98761.28;5046093;28;20436;-58
2022/04/07 03:19:16;;;;;;;10.73;3.70;;;;;;;16.90;51.28;98754.28;5045650;28;20516;-57
2022/04/07 03:21:43;;;;;;;13.68;2.80;;;;;;;16.89;51.09;98755.31;5041584;28;20451;-55
2022/04/07 03:24:11;;;;;;;10.00;3.30;;;;;;;16.89;51.21;98738.44;5042738;28;20041;-56
2022/04/07 03:26:57;;;;;;;11.38;2.88;;;;;;;16.91;51.38;98736.38;5045807;28;20041;-56
2022/04/07 03:29:25;;;;;;;10.52;3.00;;;;;;;16.90;51.46;98729.38;5045496;28;20413;-56
2022/04/07 03:31:51;;;;;;;9.23;3.22;;;;;;;16.88;51.61;98721.53;5046938;28;20045;-56
2022/04/07 03:34:18;;;;;;;11.00;2.88;;;;;;;16.88;51.23;98710.81;5044392;28;20041;-56
2022/04/07 03:36:44;;;;;;;12.90;3.08;;;;;;;16.88;51.43;98710.00;5043275;28;20077;-57
2022/04/07 03:39:11;;;;;;;12.38;3.15;;;;;;;16.87;51.45;98703.81;5044941;28;20052;-57
2022/04/07 03:41:37;;;;;;;13.77;3.15;;;;;;;16.89;51.16;98691.09;5045400;28;20075;-57
2022/04/07 03:44:07;;;;;;;12.27;2.85;;;;;;;16.87;51.38;98682.44;5041684;28;20041;-57
2022/04/07 03:46:33;;;;;;;6.32;2.03;;;;;;;16.86;51.80;98677.28;5042604;28;20152;-56
2022/04/07 03:49:00;;;;;;;8.10;3.13;;;;;;;16.85;51.61;98664.94;5041331;28;20049;-57
2022/04/07 03:51:27;;;;;;;9.65;2.60;;;;;;;16.83;51.38;98662.44;5043233;28;20044;-57
2022/04/07 03:53:53;;;;;;;10.95;2.50;;;;;;;16.84;51.15;98633.84;5043674;28;20037;-56
2022/04/07 03:56:21;;;;;;;10.50;3.00;;;;;;;16.82;51.10;98631.38;5044332;28;20047;-57
2022/04/07 03:58:47;;;;;;;14.10;3.47;;;;;;;16.80;51.03;98609.31;5044452;28;20132;-56
2022/04/07 04:01:14;;;;;;;13.35;3.00;;;;;;;16.80;51.78;98597.81;5046355;28;20434;-56
2022/04/07 04:03:40;;;;;;;9.70;2.70;;;;;;;16.77;51.25;98597.19;5044863;28;20045;-57
2022/04/07 04:06:07;;;;;;;14.75;2.80;;;;;;;16.78;51.34;98581.97;5046564;28;20056;-56
2022/04/07 04:08:33;;;;;;;15.15;3.30;;;;;;;16.74;51.49;98576.19;5048800;28;20053;-57
2022/04/07 04:11:00;;;;;;;15.07;3.28;;;;;;;16.74;51.35;98565.50;5046924;28;20056;-57
2022/04/07 04:13:28;;;;;;;11.75;3.22;;;;;;;16.73;51.57;98558.50;5048771;28;20053;-57
2022/04/07 04:15:56;;;;;;;14.30;2.88;;;;;;;16.73;51.31;98545.13;5048937;28;20633;-57
2022/04/07 04:18:23;;;;;;;12.10;2.50;;;;;;;16.72;51.71;98545.28;5048006;28;20051;-57
2022/04/07 04:20:50;;;;;;;13.20;3.20;;;;;;;16.71;51.59;98533.75;5047290;28;20062;-57
2022/04/07 04:23:16;;;;;;;11.80;2.47;;;;;;;16.71;51.50;98527.59;5047407;28;20682;-57
2022/04/07 04:25:43;;;;;;;11.07;2.33;;;;;;;16.70;51.20;98525.94;5047303;28;20053;-56
2022/04/07 04:28:09;;;;;;;10.38;2.63;;;;;;;16.70;51.52;98516.06;5049841;28;20442;-56
2022/04/07 04:30:36;;;;;;;9.90;2.85;;;;;;;16.68;51.76;98495.88;5045962;28;20049;-56
2022/04/07 04:33:02;;;;;;;9.45;2.22;;;;;;;16.68;52.12;98498.56;5045839;28;20049;-56
2022/04/07 04:35:29;;;;;;;10.48;2.55;;;;;;;16.67;51.68;98489.72;5048864;28;20041;-56
2022/04/07 04:37:55;;;;;;;7.70;2.13;;;;;;;16.67;51.97;98472.84;5049167;28;20041;-57
2022/04/07 04:40:22;;;;;;;10.05;2.40;;;;;;;16.66;51.88;98441.78;5048217;28;20056;-56
2022/04/07 04:42:48;;;;;;;9.52;2.95;;;;;;;16.63;51.96;98467.06;5041673;28;20043;-56
2022/04/07 04:45:15;;;;;;;7.95;2.10;;;;;;;16.64;51.61;98462.53;5045257;28;20442;-56
2022/04/07 04:47:41;;;;;;;9.20;1.92;;;;;;;16.63;51.29;98485.78;5047321;28;20049;-56
2022/04/07 04:50:08;;;;;;;10.95;1.90;;;;;;;16.62;52.02;98464.63;5046429;28;20059;-56
2022/04/07 04:52:35;;;;;;;8.52;2.22;;;;;;;16.60;51.93;98450.59;5048200;28;20044;-56
2022/04/07 04:55:01;;;;;;;6.82;2.03;;;;;;;16.61;51.37;98469.16;5047712;28;20053;-56
2022/04/07 04:57:28;;;;;;;6.65;2.03;;;;;;;16.57;51.58;98446.50;5048223;28;20049;-57
2022/04/07 04:59:55;;;;;;;6.40;1.88;;;;;;;16.57;51.80;98441.16;5048160;28;20481;-56
2022/04/07 05:02:21;;;;;;;10.27;2.08;;;;;;;16.57;51.77;98430.47;5046016;28;20048;-56
2022/04/07 05:04:48;;;;;;;8.63;2.10;;;;;;;16.56;51.59;98418.09;5047831;28;20051;-56
2022/04/07 05:07:15;;;;;;;7.72;2.17;;;;;;;16.55;51.60;98421.81;5048265;28;20055;-56
2022/04/07 05:09:41;;;;;;;7.22;1.75;;;;;;;16.56;51.94;98418.09;5045989;28;20519;-56
2022/04/07 05:12:08;;;;;;;8.10;1.77;;;;;;;16.53;51.45;98405.97;5046255;28;20491;-55
2022/04/07 05:14:34;;;;;;;11.98;2.10;;;;;;;16.53;51.77;98399.81;5045789;28;20052;-57
2022/04/07 05:17:01;;;;;;;6.45;1.92;;;;;;;16.52;51.84;98412.34;5048382;28;20072;-56
2022/04/07 05:19:27;;;;;;;6.57;1.63;;;;;;;16.50;51.61;98408.22;5046803;28;20052;-56
2022/04/07 05:21:54;;;;;;;10.82;2.08;;;;;;;16.51;51.91;98391.97;5044399;28;20059;-56
2022/04/07 05:24:20;;;;;;;7.75;2.08;;;;;;;16.49;51.79;98364.63;5043482;28;20037;-55
2022/04/07 05:26:47;;;;;;;6.97;1.92;;;;;;;16.48;52.05;98391.53;5046642;28;20049;-56
2022/04/07 05:29:14;;;;;;;8.75;2.13;;;;;;;16.48;52.06;98394.22;5046979;28;20053;-56
2022/04/07 05:31:40;;;;;;;9.30;2.03;;;;;;;16.46;52.08;98382.94;5046053;28;20037;-56
2022/04/07 05:34:08;;;;;;;6.88;1.73;;;;;;;16.46;52.05;98393.63;5048079;28;20140;-56
2022/04/07 05:36:34;;;;;;;6.15;1.50;;;;;;;16.44;52.24;98388.47;5044843;28;20118;-55
2022/04/07 05:39:01;;;;;;;6.90;2.50;;;;;;;16.43;51.88;98391.34;5026859;28;20090;-55
2022/04/07 05:41:27;;;;;;;5.95;1.50;;;;;;;16.43;51.75;98506.31;5045835;28;20476;-56
2022/04/07 05:43:54;;;;;;;7.13;2.10;;;;;;;16.44;52.29;98559.59;5045769;28;20047;-56
2022/04/07 05:46:20;;;;;;;5.45;1.50;;;;;;;16.42;52.76;98536.75;5045798;28;21692;-56
2022/04/07 05:48:47;;;;;;;6.28;1.85;;;;;;;16.40;52.04;98544.13;5044506;28;20052;-56
2022/04/07 05:51:14;;;;;;;7.82;2.25;;;;;;;16.36;52.07;98525.00;5044740;28;20052;-56
2022/04/07 05:53:40;;;;;;;5.90;1.85;;;;;;;16.34;52.46;98540.41;5045224;28;20055;-57
2022/04/07 05:56:07;;;;;;;3.80;1.45;;;;;;;16.32;52.94;98528.25;5028613;28;20057;-56
2022/04/07 05:58:34;;;;;;;4.57;1.55;;;;;;;16.29;52.40;98519.63;5049515;28;20040;-56
2022/04/07 06:01:00;;;;;;;5.82;1.55;;;;;;;16.27;52.76;98523.50;5034942;28;20649;-56
2022/04/07 06:03:27;;;;;;;5.32;1.40;;;;;;;16.25;52.25;98515.72;5046094;28;20076;-56
2022/04/07 06:05:53;;;;;;;6.82;2.00;;;;;;;16.23;52.51;98507.03;5049592;28;20080;-56
2022/04/07 06:08:20;;;;;;;8.25;1.55;;;;;;;16.25;52.52;98506.88;5049326;28;20033;-56
2022/04/07 06:10:46;;;;;;;4.03;1.80;;;;;;;16.23;53.23;98507.03;5049576;28;20547;-56
2022/04/07 06:13:14;;;;;;;6.05;1.40;;;;;;;16.23;53.06;98515.06;5051484;28;20119;-55
2022/04/07 06:15:42;;;;;;;6.30;1.65;;;;;;;16.24;52.94;98505.19;5046884;28;20757;-55
2022/04/07 06:18:09;;;;;;;5.18;1.45;;;;;;;16.24;52.47;98510.53;5049688;28;20043;-56
2022/04/07 06:20:35;;;;;;;6.47;1.48;;;;;;;16.23;52.22;98515.06;5049861;28;20139;-56
2022/04/07 06:23:02;;;;;;;3.60;1.27;;;;;;;16.24;52.52;98505.19;5048584;28;20128;-57
2022/04/07 06:25:28;;;;;;;7.20;1.75;;;;;;;16.23;52.23;98483.00;5049690;28;20044;-56
2022/04/07 06:27:56;;;;;;;5.82;1.83;;;;;;;16.25;52.97;98490.81;5048782;28;20053;-56
2022/04/07 06:30:22;;;;;;;6.40;1.70;;;;;;;16.24;52.34;98463.28;5049444;28;20055;-57
2022/04/07 06:32:49;;;;;;;2.55;1.00;;;;;;;16.24;52.66;98449.91;5046884;28;20688;-56
2022/04/07 06:35:16;;;;;;;3.38;1.20;;;;;;;16.25;52.75;98437.38;5050358;28;20055;-56
2022/04/07 06:37:49;;;;;;;3.05;1.20;;;;;;;16.24;52.87;98423.19;5049359;28;20048;-56
2022/04/07 06:40:19;;;;;;;3.45;1.45;;;;;;;16.24;52.81;98425.88;5049878;28;20042;-56
2022/04/07 06:42:46;;;;;;;3.50;1.00;;;;;;;16.25;52.97;98443.53;5047653;28;20041;-57
2022/04/07 06:45:13;;;;;;;3.85;1.20;;;;;;;16.25;51.95;98440.88;5049951;28;20033;-56
2022/04/07 06:47:40;;;;;;;6.32;1.38;;;;;;;16.24;52.35;98428.53;5046897;28;20043;-58
2022/04/07 06:50:12;;;;;;;4.32;1.25;;;;;;;16.25;52.41;98427.50;5049479;28;20152;-56
2022/04/07 06:52:40;;;;;;;3.53;1.17;;;;;;;16.25;52.79;98424.81;5046834;28;20053;-56
2022/04/07 06:55:08;;;;;;;3.42;1.20;;;;;;;16.25;52.59;98418.66;5044377;28;20044;-56
2022/04/07 06:57:52;;;;;;;3.72;1.13;;;;;;;16.23;52.40;98413.50;5050761;28;20175;-56
2022/04/07 07:00:20;;;;;;;4.18;1.10;;;;;;;16.24;52.83;98407.16;5045002;28;20047;-58
2022/04/07 07:02:48;;;;;;;6.78;1.65;;;;;;;16.23;52.17;98415.34;5044638;28;20386;-55
2022/04/07 07:05:15;;;;;;;4.03;1.13;;;;;;;16.23;51.79;98418.03;5042494;28;20107;-58
2022/04/07 07:07:42;;;;;;;3.10;0.90;;;;;;;16.23;52.89;98410.00;5044973;28;20049;-55
2022/04/07 07:10:09;;;;;;;3.60;1.10;;;;;;;16.22;52.93;98403.84;5033154;28;20057;-56
2022/04/07 07:12:36;;;;;;;2.42;1.02;;;;;;;16.21;52.49;98394.19;5028835;28;22108;-55
2022/04/07 07:15:03;;;;;;;5.72;1.65;;;;;;;16.23;51.94;98393.97;5021535;28;20061;-55
2022/04/07 07:17:33;;;;;;;3.28;1.10;;;;;;;16.23;52.04;98388.63;5025294;28;20407;-56
2022/04/07 07:20:02;;;;;;;3.28;1.00;;;;;;;16.22;52.63;98378.97;5030669;28;20386;-55
2022/04/07 07:22:28;;;;;;;4.03;1.40;;;;;;;16.21;52.29;98374.66;5025838;28;20119;-55
2022/04/07 07:24:55;;;;;;;2.53;1.10;;;;;;;16.21;52.00;98375.47;5021955;28;20044;-56
2022/04/07 07:27:21;;;;;;;4.97;1.10;;;;;;;16.22;52.00;98381.66;5027208;28;20061;-56
2022/04/07 07:29:48;;;;;;;5.05;1.58;;;;;;;16.24;52.26;98366.22;5028040;28;20049;-56
2022/04/07 07:32:14;;;;;;;3.92;1.50;;;;;;;16.24;51.60;98345.69;5025654;28;20053;-55
2022/04/07 07:34:41;;;;;;;2.80;1.20;;;;;;;16.24;51.34;98305.59;5026910;28;20038;-57
2022/04/07 07:37:07;;;;;;;3.42;1.02;;;;;;;16.25;51.34;98303.75;5029998;28;20053;-56
2022/04/07 07:39:34;;;;;;;3.15;0.90;;;;;;;16.24;51.43;98294.91;5026593;28;20140;-55
2022/04/07 07:42:00;;;;;;;4.82;1.63;;;;;;;16.24;51.71;98297.56;5023352;28;20183;-56
2022/04/07 07:44:27;;;;;;;2.22;1.00;;;;;;;16.25;52.02;98288.53;5011108;28;20137;-56
2022/04/07 07:46:54;;;;;;;1.65;1.00;;;;;;;16.25;51.29;98277.00;5025586;28;20049;-55
2022/04/07 07:49:20;;;;;;;1.42;0.73;;;;;;;16.25;51.37;98267.13;5023511;28;20054;-56
2022/04/07 07:51:47;;;;;;;2.28;1.08;;;;;;;16.26;51.85;98273.31;5022472;28;20160;-56
2022/04/07 07:54:15;;;;;;;3.13;0.95;;;;;;;16.27;51.68;98281.09;5024059;28;20433;-56
2022/04/07 07:56:41;;;;;;;1.75;0.70;;;;;;;16.29;51.09;98278.25;5023567;28;20072;-55
2022/04/07 07:59:08;;;;;;;4.93;1.00;;;;;;;16.32;50.88;98279.66;5028025;28;20160;-56
2022/04/07 08:01:34;;;;;;;1.77;0.77;;;;;;;16.35;51.86;98279.25;5028261;28;20080;-56
2022/04/07 08:04:01;;;;;;;3.72;1.10;;;;;;;16.38;51.24;98278.88;5025680;28;20046;-57
2022/04/07 08:06:29;;;;;;;3.65;1.00;;;;;;;16.39;50.93;98275.97;5025917;28;20056;-56
2022/04/07 08:08:55;;;;;;;2.90;1.10;;;;;;;16.43;51.33;98277.19;5028120;28;20049;-56
2022/04/07 08:11:22;;;;;;;1.80;0.98;;;;;;;16.47;51.22;98280.28;5047083;28;20143;-55
2022/04/07 08:13:48;;;;;;;3.30;0.80;;;;;;;16.52;50.98;98267.13;5044689;28;20124;-56
2022/04/07 08:16:15;;;;;;;4.18;1.23;;;;;;;16.59;50.34;98267.94;5044509;28;20036;-56
2022/04/07 08:18:41;;;;;;;2.90;1.05;;;;;;;16.64;51.37;98268.13;5039423;28;20146;-55
2022/04/07 08:21:08;;;;;;;4.05;1.58;;;;;;;16.70;51.54;98272.66;5042459;28;20131;-57
2022/04/07 08:23:34;;;;;;;6.18;2.38;;;;;;;16.76;51.46;98271.88;5046093;28;20132;-56
2022/04/07 08:26:01;;;;;;;5.38;2.83;;;;;;;16.82;51.08;98277.41;5046463;28;20048;-56
2022/04/07 08:28:28;;;;;;;7.65;3.10;;;;;;;16.88;50.64;98272.03;5047849;28;20068;-57
2022/04/07 08:30:54;;;;;;;8.10;3.50;;;;;;;16.93;50.73;98284.81;5046939;28;20051;-57
2022/04/07 08:33:21;;;;;;;7.75;3.90;;;;;;;16.99;50.10;98281.28;5047653;28;20099;-58
2022/04/07 08:35:47;;;;;;;8.90;4.53;;;;;;;17.02;50.31;98280.88;5048269;28;20136;-56
2022/04/07 08:38:15;;;;;;;8.95;5.40;;;;;;;17.07;50.79;98277.56;5045711;28;20139;-57
2022/04/07 08:40:42;;;;;;;10.57;5.32;;;;;;;17.11;50.33;98270.75;5044881;28;20079;-56
2022/04/07 08:43:09;;;;;;;8.82;5.13;;;;;;;17.14;49.75;98292.59;5043517;28;20057;-57
2022/04/07 08:45:36;;;;;;;11.23;4.80;;;;;;;17.17;50.01;98275.28;5043501;28;20087;-57
2022/04/07 08:48:05;;;;;;;9.60;5.22;;;;;;;17.17;49.60;98276.09;5044317;28;20067;-57
2022/04/07 08:50:34;;;;;;;12.15;5.60;;;;;;;17.21;49.68;98279.19;5049583;28;20051;-57
2022/04/07 08:53:02;;;;;;;13.77;6.50;;;;;;;17.23;49.51;98269.91;5048188;28;20135;-55
2022/04/07 08:55:28;;;;;;;20.88;10.50;;;;;;;17.25;49.74;98283.91;5043769;28;20041;-55
2022/04/07 08:57:55;;;;;;;18.00;10.25;;;;;;;17.27;49.51;98284.50;5041397;28;20144;-56
2022/04/07 09:00:22;;;;;;;23.02;13.25;;;;;;;17.31;49.47;98284.91;5047406;28;20057;-56
2022/04/07 09:02:48;;;;;;;25.88;13.48;;;;;;;17.32;49.43;98283.84;5044335;28;20136;-55
2022/04/07 09:05:17;;;;;;;24.45;13.00;;;;;;;17.34;49.84;98287.16;5045978;28;20033;-56
2022/04/07 09:07:45;;;;;;;23.88;13.38;;;;;;;17.35;49.14;98293.34;5042884;28;20591;-56
2022/04/07 09:10:12;;;;;;;26.77;13.35;;;;;;;17.38;49.58;98303.63;5041643;28;20052;-56
2022/04/07 09:12:40;;;;;;;24.92;12.75;;;;;;;17.37;48.90;98297.47;5041711;28;20055;-55
2022/04/07 09:15:07;;;;;;;25.40;13.32;;;;;;;17.38;49.18;98303.63;5041752;28;20040;-56
2022/04/07 09:17:49;;;;;;;24.10;13.00;;;;;;;17.38;48.90;98306.31;5042601;28;20064;-57
2022/04/07 09:20:15;;;;;;;21.45;12.82;;;;;;;17.37;49.21;98297.47;5041585;28;20060;-56
2022/04/07 09:22:42;;;;;;;21.88;11.98;;;;;;;17.37;49.02;98307.34;5042668;28;20068;-56
2022/04/07 09:25:12;;;;;;;23.90;12.60;;;;;;;17.39;48.91;98315.97;5045361;28;20408;-57
2022/04/07 09:27:40;;;;;;;23.35;12.57;;;;;;;17.41;49.44;98316.59;5025474;28;20059;-57
2022/04/07 09:30:08;;;;;;;19.15;10.30;;;;;;;17.43;49.43;98307.31;5042069;28;20127;-56
2022/04/07 09:32:43;;;;;;;20.25;10.48;;;;;;;17.47;49.39;98316.56;5042013;28;20428;-57
2022/04/07 09:35:11;;;;;;;19.83;10.55;;;;;;;17.51;49.72;98304.38;5043136;28;20043;-56
2022/04/07 09:37:40;;;;;;;20.77;10.38;;;;;;;17.56;49.44;98314.47;5040937;28;20364;-56
2022/04/07 09:40:16;;;;;;;21.08;10.38;;;;;;;17.58;49.36;98315.09;5045633;28;20140;-56
2022/04/07 09:42:43;;;;;;;16.85;9.07;;;;;;;17.60;49.04;98323.72;5046776;28;20063;-56
2022/04/07 09:45:14;;;;;;;18.52;8.15;;;;;;;17.62;49.00;98320.84;5042710;28;20120;-57
2022/04/07 09:47:43;;;;;;;16.08;8.50;;;;;;;17.64;48.66;98319.59;5043314;28;20049;-57
2022/04/07 09:50:31;;;;;;;18.52;8.73;;;;;;;17.64;49.18;98316.91;5040510;28;20052;-57
2022/04/07 09:53:04;;;;;;;18.63;8.90;;;;;;;17.66;48.29;98319.38;5042818;28;20871;-56
2022/04/07 09:55:37;;;;;;;12.68;6.68;;;;;;;17.65;48.39;98331.16;5043755;28;20057;-57
2022/04/07 09:58:08;;;;;;;19.35;7.97;;;;;;;17.65;48.52;98347.22;5040621;28;20071;-56
2022/04/07 10:00:36;;;;;;;11.90;6.70;;;;;;;17.65;48.64;98349.91;5042221;28;20417;-56
2022/04/07 10:03:03;;;;;;;15.20;7.32;;;;;;;17.65;48.40;98341.84;5044796;28;20428;-56
2022/04/07 10:05:30;;;;;;;13.95;5.78;;;;;;;17.64;48.43;98335.66;5040910;28;20045;-57
2022/04/07 10:07:57;;;;;;;14.55;6.47;;;;;;;17.63;48.14;98333.19;5043143;28;20049;-57
2022/04/07 10:10:25;;;;;;;12.80;6.60;;;;;;;17.63;47.80;98333.19;5042654;28;20136;-56
2022/04/07 10:12:51;;;;;;;13.40;6.30;;;;;;;17.60;47.71;98341.66;5044130;28;20051;-57
2022/04/07 10:15:19;;;;;;;12.07;5.97;;;;;;;17.60;48.54;98353.19;5039992;28;20079;-57
2022/04/07 10:17:46;;;;;;;12.75;6.57;;;;;;;17.56;47.96;98341.25;5042658;28;20429;-56
2022/04/07 10:20:16;;;;;;;13.40;6.25;;;;;;;17.52;48.17;98351.56;5042929;28;20056;-57
2022/04/07 10:23:10;;;;;;;15.45;6.30;;;;;;;17.49;48.23;98364.56;5042617;28;20041;-57
2022/04/07 10:25:45;;;;;;;12.95;6.63;;;;;;;17.46;48.30;98378.38;5039176;28;20056;-57
2022/04/07 10:28:12;;;;;;;21.35;8.15;;;;;;;17.44;48.33;98370.53;5044058;28;20076;-57
2022/04/07 10:30:48;;;;;;;16.30;7.93;;;;;;;17.42;48.21;98369.13;5047274;28;20492;-58
2022/04/07 10:33:33;;;;;;;21.80;8.80;;;;;;;17.40;48.28;98379.19;5038943;28;20053;-57
2022/04/07 10:36:06;;;;;;;19.85;8.90;;;;;;;17.39;48.23;98366.84;5039906;28;20044;-56
2022/04/07 10:38:38;;;;;;;19.50;8.25;;;;;;;17.36;48.54;98376.13;5040306;28;20167;-56
2022/04/07 10:41:04;;;;;;;20.48;9.07;;;;;;;17.35;48.46;98366.44;5041865;28;20487;-57
2022/04/07 10:43:31;;;;;;;18.65;9.05;;;;;;;17.34;48.54;98382.72;5042203;28;20051;-56
2022/04/07 10:46:11;;;;;;;18.50;8.77;;;;;;;17.32;48.72;98374.88;5040403;28;20314;-57
2022/04/07 10:49:10;;;;;;;19.10;8.60;;;;;;;17.31;48.13;98380.47;5039612;28;20176;-57
2022/04/07 10:51:53;;;;;;;14.88;7.45;;;;;;;17.31;48.70;98367.06;5035894;28;20329;-56
2022/04/07 10:54:24;;;;;;;16.65;8.30;;;;;;;17.34;48.82;98375.53;5041842;28;20391;-56
2022/04/07 10:56:52;;;;;;;17.52;7.75;;;;;;;17.38;48.64;98381.28;5041771;28;20409;-57
2022/04/07 10:59:26;;;;;;;16.38;7.22;;;;;;;17.38;48.47;98390.13;5041440;28;20044;-57
2022/04/07 11:02:02;;;;;;;13.13;6.75;;;;;;;17.41;48.29;98378.19;5038718;28;20426;-57
2022/04/07 11:04:29;;;;;;;16.80;6.88;;;;;;;17.44;48.47;98385.78;5040853;28;20140;-57
2022/04/07 11:07:08;;;;;;;17.55;6.30;;;;;;;17.48;48.43;98378.97;5043163;28;20045;-57
2022/04/07 11:09:43;;;;;;;23.13;6.97;;;;;;;17.52;47.80;98377.53;5042356;28;20057;-56
2022/04/07 11:12:24;;;;;;;17.70;7.60;;;;;;;17.56;48.33;98377.94;5043152;28;20416;-56
2022/04/07 11:14:56;;;;;;;35.38;17.75;;;;;;;17.58;48.55;98379.38;5038626;28;20071;-56
2022/04/07 11:17:32;;;;;;;54.45;24.10;;;;;;;17.61;48.80;98392.34;5040482;28;20065;-56
2022/04/07 11:20:04;;;;;;;67.55;32.13;;;;;;;17.64;49.83;98375.00;5022119;28;20926;-57
2022/04/07 11:22:46;;;;;;;68.80;32.97;;;;;;;17.69;50.11;98377.91;5040796;28;20044;-57
2022/04/07 11:25:20;;;;;;;54.38;28.27;;;;;;;17.70;49.99;98388.41;5042040;28;20047;-56
2022/04/07 11:28:03;;;;;;;56.83;25.52;;;;;;;17.73;49.60;98387.97;5041227;28;20128;-57
2022/04/07 11:30:44;;;;;;;48.80;23.88;;;;;;;17.75;49.45;98385.94;5040954;28;20041;-56
2022/04/07 11:33:26;;;;;;;49.80;21.92;;;;;;;17.79;49.34;98388.19;5033778;28;20037;-56